createdAt,value
2018-09-27T00:01:01.162Z,16.52
2018-09-27T00:04:07.030Z,16.57
2018-09-27T00:07:12.373Z,16.58
2018-09-27T00:10:17.746Z,16.60
2018-09-27T00:13:23.110Z,16.54
2018-09-27T00:16:28.774Z,16.51
2018-09-27T00:19:34.215Z,16.44
2018-09-27T00:22:39.734Z,16.45
2018-09-27T00:25:45.131Z,16.48
2018-09-27T00:28:50.545Z,16.48
2018-09-27T00:31:55.986Z,16.50
2018-09-27T00:35:01.365Z,16.56
2018-09-27T00:38:06.786Z,16.54
2018-09-27T00:41:12.157Z,16.49
2018-09-27T00:44:17.548Z,16.48
2018-09-27T00:47:22.903Z,16.55
2018-09-27T00:50:28.390Z,16.56
2018-09-27T00:53:33.749Z,16.58
2018-09-27T00:56:39.122Z,16.68
2018-09-27T00:59:44.506Z,16.71
2018-09-27T01:02:49.895Z,16.69
2018-09-27T01:05:55.290Z,16.70
2018-09-27T01:09:00.649Z,16.70
2018-09-27T01:12:06.053Z,16.69
2018-09-27T01:15:11.435Z,16.67
2018-09-27T01:18:16.794Z,16.66
2018-09-27T01:21:22.186Z,16.73
2018-09-27T01:24:27.569Z,16.76
2018-09-27T01:27:33.058Z,16.74
2018-09-27T01:30:38.436Z,16.74
2018-09-27T01:33:43.925Z,16.67
2018-09-27T01:36:49.695Z,16.70
2018-09-27T01:39:55.095Z,16.68
2018-09-27T01:43:00.462Z,16.68
2018-09-27T01:46:05.898Z,16.73
2018-09-27T01:49:11.261Z,16.70
2018-09-27T01:52:16.637Z,16.73
2018-09-27T01:55:22.399Z,16.73
2018-09-27T01:58:27.767Z,16.74
2018-09-27T02:01:33.557Z,16.69
2018-09-27T02:04:38.927Z,16.73
2018-09-27T02:07:44.358Z,16.72
2018-09-27T02:10:49.902Z,16.70
2018-09-27T02:13:55.377Z,16.70
2018-09-27T02:17:02.293Z,16.74
2018-09-27T02:20:07.717Z,16.74
2018-09-27T02:23:13.053Z,16.80
2018-09-27T02:26:18.462Z,16.78
2018-09-27T02:29:23.831Z,16.75
2018-09-27T02:32:29.280Z,16.74
2018-09-27T02:35:34.737Z,16.74
2018-09-27T02:38:40.158Z,16.75
2018-09-27T02:41:45.720Z,16.76
2018-09-27T02:44:51.127Z,16.76
2018-09-27T02:47:56.531Z,16.79
2018-09-27T02:51:01.951Z,16.83
2018-09-27T02:54:07.371Z,16.86
2018-09-27T02:57:12.848Z,16.84
2018-09-27T03:00:18.342Z,16.83
2018-09-27T03:03:23.744Z,16.83
2018-09-27T03:06:29.199Z,16.83
2018-09-27T03:09:34.604Z,16.85
2018-09-27T03:12:40.287Z,16.84
2018-09-27T03:15:45.702Z,16.84
2018-09-27T03:18:51.621Z,16.88
2018-09-27T03:21:57.043Z,16.86
2018-09-27T03:25:02.436Z,16.81
2018-09-27T03:28:07.851Z,16.77
2018-09-27T03:31:13.254Z,16.75
2018-09-27T03:34:18.744Z,16.75
2018-09-27T03:37:24.514Z,16.75
2018-09-27T03:40:30.014Z,16.75
2018-09-27T03:43:35.814Z,16.78
2018-09-27T03:46:41.231Z,16.79
2018-09-27T03:49:46.641Z,16.76
2018-09-27T03:52:52.155Z,16.72
2018-09-27T03:55:57.547Z,16.76
2018-09-27T03:59:03.923Z,16.78
2018-09-27T04:02:09.363Z,16.76
2018-09-27T04:05:14.757Z,16.73
2018-09-27T04:08:20.178Z,16.70
2018-09-27T04:11:25.606Z,16.70
2018-09-27T04:14:31.033Z,16.67
2018-09-27T04:17:36.601Z,16.65
2018-09-27T04:20:47.334Z,16.59
2018-09-27T04:23:52.789Z,16.57
2018-09-27T04:26:58.470Z,16.58
2018-09-27T04:30:03.923Z,16.56
2018-09-27T04:33:09.446Z,16.53
2018-09-27T04:36:14.863Z,16.53
2018-09-27T04:39:20.268Z,16.50
2018-09-27T04:42:25.667Z,16.51
2018-09-27T04:45:31.563Z,16.47
2018-09-27T04:48:36.970Z,16.41
2018-09-27T04:51:43.309Z,16.38
2018-09-27T04:54:49.014Z,16.35
2018-09-27T04:57:54.419Z,16.31
2018-09-27T05:00:59.866Z,16.27
2018-09-27T05:04:05.348Z,16.26
2018-09-27T05:07:10.774Z,16.30
2018-09-27T05:10:16.183Z,16.28
2018-09-27T05:13:21.603Z,16.23
2018-09-27T05:16:27.010Z,16.21
2018-09-27T05:19:32.423Z,16.23
2018-09-27T05:22:37.909Z,16.22
2018-09-27T05:25:43.387Z,16.13
2018-09-27T05:28:48.782Z,16.16
2018-09-27T05:31:54.731Z,16.12
2018-09-27T05:35:00.166Z,16.15
2018-09-27T05:38:05.599Z,16.07
2018-09-27T05:41:11.003Z,16.06
2018-09-27T05:44:16.439Z,16.13
2018-09-27T05:47:21.867Z,16.15
2018-09-27T05:50:27.247Z,16.18
2018-09-27T05:53:32.691Z,16.10
2018-09-27T05:56:38.104Z,16.05
2018-09-27T05:59:44.303Z,16.06
2018-09-27T06:02:49.752Z,16.09
2018-09-27T06:05:55.163Z,16.09
2018-09-27T06:09:00.608Z,16.06
2018-09-27T06:12:06.007Z,16.10
2018-09-27T06:15:11.443Z,16.12
2018-09-27T06:18:16.910Z,16.10
2018-09-27T06:21:22.329Z,16.01
2018-09-27T06:24:28.284Z,16.01
2018-09-27T06:27:33.700Z,15.98
2018-09-27T06:30:39.397Z,15.91
2018-09-27T06:33:45.042Z,15.82
2018-09-27T06:36:50.459Z,15.83
2018-09-27T06:39:55.922Z,15.86
2018-09-27T06:43:01.428Z,15.91
2018-09-27T06:46:07.149Z,15.90
2018-09-27T06:49:12.597Z,15.96
2018-09-27T06:52:18.020Z,16.03
2018-09-27T06:55:24.285Z,16.04
2018-09-27T06:58:30.390Z,16.07
2018-09-27T07:01:35.852Z,16.13
2018-09-27T07:04:44.216Z,16.10
2018-09-27T07:07:52.103Z,16.02
2018-09-27T07:10:57.819Z,16.06
2018-09-27T07:14:04.616Z,16.03
2018-09-27T07:17:10.033Z,15.94
2018-09-27T07:20:15.564Z,15.93
2018-09-27T07:23:21.179Z,15.95
2018-09-27T07:26:27.368Z,15.95
2018-09-27T07:29:32.998Z,16.05
2018-09-27T07:32:38.556Z,16.07
2018-09-27T07:35:44.160Z,16.08
2018-09-27T07:38:49.597Z,16.10
2018-09-27T07:41:55.146Z,16.19
2018-09-27T07:45:01.281Z,16.22
2018-09-27T07:48:06.893Z,16.25
2018-09-27T07:51:12.567Z,16.26
2018-09-27T07:54:18.217Z,16.34
2018-09-27T07:57:23.875Z,16.32
2018-09-27T08:00:29.434Z,16.39
2018-09-27T08:03:34.855Z,16.38
2018-09-27T08:06:40.419Z,16.47
2018-09-27T08:09:45.862Z,16.54
2018-09-27T08:12:51.442Z,16.57
2018-09-27T08:15:56.943Z,16.57
2018-09-27T08:19:02.446Z,16.58
2018-09-27T08:22:08.150Z,16.62
2018-09-27T08:25:13.588Z,16.65
2018-09-27T08:28:19.139Z,16.78
2018-09-27T08:31:24.655Z,16.98
2018-09-27T08:34:30.222Z,17.14
2018-09-27T08:37:35.814Z,17.33
2018-09-27T08:40:41.780Z,17.38
2018-09-27T08:43:47.207Z,17.45
2018-09-27T08:46:52.684Z,17.47
2018-09-27T08:49:58.191Z,17.47
2018-09-27T08:53:04.359Z,17.59
2018-09-27T08:56:10.335Z,17.65
2018-09-27T08:59:16.702Z,17.69
2018-09-27T09:02:22.127Z,17.72
2018-09-27T09:05:27.566Z,17.83
2018-09-27T09:08:32.987Z,17.91
2018-09-27T09:11:38.965Z,17.99
2018-09-27T09:14:44.428Z,18.02
2018-09-27T09:17:50.479Z,18.12
2018-09-27T09:20:55.919Z,18.21
2018-09-27T09:24:01.521Z,18.35
2018-09-27T09:27:07.867Z,18.55
2018-09-27T09:30:13.648Z,18.63
2018-09-27T09:33:19.072Z,18.70
2018-09-27T09:36:24.545Z,18.84
2018-09-27T09:39:30.005Z,18.93
2018-09-27T09:42:35.516Z,18.98
2018-09-27T09:45:40.979Z,19.07
2018-09-27T09:48:46.448Z,19.19
2018-09-27T09:51:51.879Z,19.30
2018-09-27T09:54:57.739Z,19.45
2018-09-27T09:58:03.130Z,19.63
2018-09-27T10:01:09.515Z,19.82
2018-09-27T10:04:15.364Z,20.00
2018-09-27T10:07:20.775Z,20.18
2018-09-27T10:10:26.945Z,20.47
2018-09-27T10:13:32.351Z,20.68
2018-09-27T10:16:38.031Z,20.79
2018-09-27T10:19:43.623Z,20.83
2018-09-27T10:22:49.815Z,20.87
2018-09-27T10:25:57.343Z,21.00
2018-09-27T10:29:03.690Z,21.11
2018-09-27T10:32:09.286Z,21.16
2018-09-27T10:35:14.703Z,21.29
2018-09-27T10:38:20.116Z,21.44
2018-09-27T10:41:25.526Z,21.57
2018-09-27T10:44:30.914Z,21.58
2018-09-27T10:47:36.770Z,21.61
2018-09-27T10:50:42.178Z,21.57
2018-09-27T10:53:47.595Z,21.52
2018-09-27T10:56:53.031Z,21.57
2018-09-27T10:59:58.432Z,21.65
2018-09-27T11:03:03.934Z,21.77
2018-09-27T11:06:09.347Z,21.91
2018-09-27T11:09:14.727Z,21.82
2018-09-27T11:12:20.175Z,21.86
2018-09-27T11:15:25.607Z,22.06
2018-09-27T11:18:32.175Z,22.23
2018-09-27T11:21:37.684Z,22.29
2018-09-27T11:24:43.075Z,22.48
2018-09-27T11:27:48.539Z,22.61
2018-09-27T11:30:59.043Z,22.79
2018-09-27T11:34:04.491Z,22.98
2018-09-27T11:37:10.279Z,22.98
2018-09-27T11:40:15.682Z,23.18
2018-09-27T11:43:21.211Z,23.69
2018-09-27T11:46:26.655Z,23.91
2018-09-27T11:49:32.307Z,24.08
2018-09-27T11:52:37.959Z,24.00
2018-09-27T11:55:43.351Z,23.62
2018-09-27T11:58:48.868Z,23.48
2018-09-27T12:01:54.295Z,23.26
2018-09-27T12:05:00.073Z,23.11
2018-09-27T12:08:05.967Z,23.12
2018-09-27T12:11:12.067Z,23.50
2018-09-27T12:14:17.700Z,23.81
2018-09-27T12:17:23.188Z,23.69
2018-09-27T12:20:28.835Z,23.68
2018-09-27T12:23:34.727Z,24.04
2018-09-27T12:26:40.141Z,24.05
2018-09-27T12:29:45.711Z,23.91
2018-09-27T12:32:51.179Z,24.09
2018-09-27T12:35:57.207Z,24.72
2018-09-27T12:39:02.662Z,24.85
2018-09-27T12:42:08.725Z,24.55
2018-09-27T12:45:14.283Z,24.60
2018-09-27T12:48:19.839Z,25.12
2018-09-27T12:51:25.534Z,24.89
2018-09-27T12:54:31.171Z,24.60
2018-09-27T12:57:36.594Z,24.09
2018-09-27T13:00:42.726Z,23.86
2018-09-27T13:03:48.239Z,23.59
2018-09-27T13:06:53.823Z,23.36
2018-09-27T13:09:59.628Z,23.27
2018-09-27T13:13:05.904Z,23.22
2018-09-27T13:16:11.653Z,23.52
2018-09-27T13:19:17.245Z,23.77
2018-09-27T13:22:23.071Z,23.98
2018-09-27T13:25:28.514Z,24.60
2018-09-27T13:28:33.954Z,24.91
2018-09-27T13:31:39.675Z,25.12
2018-09-27T13:34:45.146Z,25.12
2018-09-27T13:37:50.693Z,24.79
2018-09-27T13:40:56.314Z,24.40
2018-09-27T13:44:01.799Z,24.09
2018-09-27T13:47:07.739Z,23.82
2018-09-27T13:50:14.743Z,23.64
2018-09-27T13:53:20.164Z,23.43
2018-09-27T13:56:25.574Z,23.25
2018-09-27T13:59:31.351Z,23.05
2018-09-27T14:02:37.003Z,22.88
2018-09-27T14:05:42.432Z,22.78
2018-09-27T14:08:47.867Z,22.75
2018-09-27T14:11:53.258Z,22.67
2018-09-27T14:14:58.693Z,22.64
2018-09-27T14:18:04.119Z,22.61
2018-09-27T14:21:11.799Z,22.60
2018-09-27T14:24:17.251Z,22.61
2018-09-27T14:27:22.726Z,22.50
2018-09-27T14:30:28.202Z,22.46
2018-09-27T14:33:33.635Z,22.45
2018-09-27T14:36:39.801Z,22.52
2018-09-27T14:39:45.383Z,22.47
2018-09-27T14:42:51.581Z,22.37
2018-09-27T14:45:57.047Z,22.43
2018-09-27T14:49:02.476Z,22.47
2018-09-27T14:52:08.517Z,22.44
2018-09-27T14:55:20.112Z,22.33
2018-09-27T14:58:28.510Z,22.25
2018-09-27T15:01:34.259Z,22.22
2018-09-27T15:04:39.940Z,22.15
2018-09-27T15:07:45.834Z,22.18
2018-09-27T15:10:51.361Z,22.16
2018-09-27T15:13:56.998Z,22.07
2018-09-27T15:17:03.255Z,22.03
2018-09-27T15:20:09.398Z,22.08
2018-09-27T15:23:15.078Z,22.05
2018-09-27T15:26:20.584Z,21.99
2018-09-27T15:29:26.919Z,21.93
2018-09-27T15:32:32.413Z,21.92
2018-09-27T15:35:37.982Z,21.88
2018-09-27T15:38:43.560Z,21.78
2018-09-27T15:41:49.043Z,21.73
2018-09-27T15:44:54.551Z,21.74
2018-09-27T15:48:00.001Z,21.66
2018-09-27T15:51:05.568Z,21.69
2018-09-27T15:57:43.723Z,21.57
2018-09-27T16:00:49.155Z,21.52
2018-09-27T16:03:54.642Z,21.57
2018-09-27T16:07:00.172Z,21.48
2018-09-27T16:10:05.998Z,21.49
2018-09-27T16:13:11.445Z,21.56
2018-09-27T16:16:16.951Z,21.58
2018-09-27T16:19:22.747Z,21.54
2018-09-27T16:22:28.187Z,21.49
2018-09-27T16:28:50.327Z,21.48
2018-09-27T16:31:55.811Z,21.46
2018-09-27T16:35:01.334Z,21.41
2018-09-27T16:38:07.559Z,21.47
2018-09-27T16:41:14.227Z,21.45
2018-09-27T16:44:19.735Z,21.43
2018-09-27T16:47:25.169Z,21.38
2018-09-27T16:50:30.594Z,21.36
2018-09-27T16:53:36.009Z,21.34
2018-09-27T16:56:42.232Z,21.32
2018-09-27T16:59:59.218Z,21.27
2018-09-27T17:03:04.654Z,21.29
2018-09-27T17:06:10.191Z,21.24
2018-09-27T17:09:15.615Z,21.22
2018-09-27T17:12:21.356Z,21.09
2018-09-27T17:15:26.928Z,21.06
2018-09-27T17:18:32.419Z,21.12
2018-09-27T17:21:37.871Z,21.09
2018-09-27T17:24:43.436Z,21.06
2018-09-27T17:27:49.182Z,21.04
2018-09-27T17:30:54.703Z,20.96
2018-09-27T17:34:00.636Z,20.90
2018-09-27T17:37:07.087Z,20.81
2018-09-27T17:40:12.576Z,20.72
2018-09-27T17:43:18.283Z,20.65
2018-09-27T17:46:23.851Z,20.68
2018-09-27T17:49:29.411Z,20.61
2018-09-27T17:52:35.237Z,20.60
2018-09-27T17:55:40.916Z,20.53
2018-09-27T17:58:46.550Z,20.46
2018-09-27T18:01:54.416Z,20.50
2018-09-27T18:04:59.954Z,20.53
2018-09-27T18:08:06.089Z,20.50
2018-09-27T18:11:20.610Z,20.41
2018-09-27T18:14:26.064Z,20.27
2018-09-27T18:17:31.557Z,20.26
2018-09-27T18:20:36.999Z,20.06
2018-09-27T18:23:42.490Z,20.02
2018-09-27T18:26:48.063Z,20.09
2018-09-27T18:29:53.503Z,20.07
2018-09-27T18:32:58.960Z,20.05
2018-09-27T18:36:05.119Z,19.99
2018-09-27T18:39:11.803Z,19.73
2018-09-27T18:42:17.279Z,19.76
2018-09-27T18:45:23.215Z,19.70
2018-09-27T18:48:28.639Z,19.64
2018-09-27T18:51:34.104Z,19.60
2018-09-27T18:54:39.632Z,19.57
2018-09-27T18:57:45.070Z,19.52
2018-09-27T19:00:50.727Z,19.46
2018-09-27T19:03:56.155Z,19.36
2018-09-27T19:07:01.654Z,19.34
2018-09-27T19:10:07.127Z,19.26
2018-09-27T19:13:12.598Z,19.20
2018-09-27T19:16:20.912Z,19.12
2018-09-27T19:19:28.643Z,19.03
2018-09-27T19:22:34.071Z,18.98
2018-09-27T19:25:39.651Z,18.94
2018-09-27T19:28:45.119Z,18.87
2018-09-27T19:31:50.867Z,18.83
2018-09-27T19:34:56.415Z,18.77
2018-09-27T19:38:02.115Z,18.74
2018-09-27T19:41:07.870Z,18.72
2018-09-27T19:44:13.445Z,18.68
2018-09-27T19:47:18.922Z,18.59
2018-09-27T19:50:24.371Z,18.54
2018-09-27T19:53:29.809Z,18.54
2018-09-27T19:56:35.304Z,18.55
2018-09-27T19:59:41.450Z,18.52
2018-09-27T20:02:46.954Z,18.50
2018-09-27T20:05:52.671Z,18.51
2018-09-27T20:08:58.120Z,18.50
2018-09-27T20:12:03.576Z,18.50
2018-09-27T20:15:09.026Z,18.50
2018-09-27T20:18:14.480Z,18.51
2018-09-27T20:21:20.127Z,18.46
2018-09-27T20:24:25.572Z,18.50
2018-09-27T20:27:30.991Z,18.49
2018-09-27T20:30:36.407Z,18.39
2018-09-27T20:33:41.874Z,18.42
2018-09-27T20:36:47.402Z,18.40
2018-09-27T20:39:53.179Z,18.37
2018-09-27T20:42:58.591Z,18.35
2018-09-27T20:46:04.154Z,18.32
2018-09-27T20:49:09.567Z,18.35
2018-09-27T20:52:15.704Z,18.33
2018-09-27T20:55:21.183Z,18.34
2018-09-27T20:58:26.623Z,18.29
2018-09-27T21:01:36.229Z,18.21
2018-09-27T21:04:47.095Z,18.17
2018-09-27T21:07:52.547Z,18.14
2018-09-27T21:10:57.982Z,18.05
2018-09-27T21:14:03.551Z,18.02
2018-09-27T21:17:09.033Z,18.04
2018-09-27T21:20:14.453Z,18.01
2018-09-27T21:23:19.914Z,17.97
2018-09-27T21:26:25.443Z,17.99
2018-09-27T21:29:31.363Z,17.95
2018-09-27T21:32:37.247Z,17.88
2018-09-27T21:35:42.955Z,17.86
2018-09-27T21:38:48.556Z,17.80
2018-09-27T21:41:54.019Z,17.80
2018-09-27T21:44:59.535Z,17.76
2018-09-27T21:48:05.379Z,17.78
2018-09-27T21:51:10.848Z,17.70
2018-09-27T21:54:16.488Z,17.80
2018-09-27T21:57:21.968Z,17.77
2018-09-27T22:00:27.478Z,17.77
2018-09-27T22:03:32.979Z,17.69
2018-09-27T22:06:38.486Z,17.70
2018-09-27T22:09:44.499Z,17.75
2018-09-27T22:12:49.953Z,17.80
2018-09-27T22:15:56.065Z,17.84
2018-09-27T22:19:01.559Z,17.79
2018-09-27T22:22:07.192Z,17.79
2018-09-27T22:25:12.910Z,17.76
2018-09-27T22:28:18.331Z,17.74
2018-09-27T22:31:23.788Z,17.72
2018-09-27T22:34:29.482Z,17.72
2018-09-27T22:37:35.127Z,17.74
2018-09-27T22:40:40.584Z,17.75
2018-09-27T22:43:46.028Z,17.74
2018-09-27T22:46:51.639Z,17.64
2018-09-27T22:49:57.362Z,17.57
2018-09-27T22:53:02.854Z,17.53
2018-09-27T22:56:08.357Z,17.50
2018-09-27T22:59:13.831Z,17.40
2018-09-27T23:02:19.531Z,17.42
2018-09-27T23:05:25.227Z,17.43
2018-09-27T23:08:30.677Z,17.43
2018-09-27T23:11:36.127Z,17.05
2018-09-27T23:14:41.689Z,17.01
2018-09-27T23:17:47.111Z,17.05
2018-09-27T23:20:52.576Z,17.00
2018-09-27T23:23:58.299Z,16.98
2018-09-27T23:27:04.607Z,16.82
2018-09-27T23:30:10.071Z,16.73
2018-09-27T23:33:15.535Z,16.82
2018-09-27T23:36:21.730Z,16.84
2018-09-27T23:39:27.161Z,16.78
2018-09-27T23:42:33.184Z,16.83
2018-09-27T23:45:38.714Z,16.75
2018-09-27T23:48:44.142Z,16.78
2018-09-27T23:51:50.059Z,16.77
2018-09-27T23:54:55.637Z,16.76
2018-09-27T23:58:01.128Z,16.74
